Terminal Aerodrome Forecast
Issued by NWS Wilmington, OH

Current Version | Previous Version | Graphics & Text | Print | Product List | Glossary On
Versions: 1 2 3 4 5 6 7 8 9 10 11 12 13 14 15 16 17 18 19 20 21 22 23 24
000
FTUS41 KILN 250523
TAFCVG
TAF
KCVG 250523Z 2506/2612 11006KT P6SM BKN035
      TEMPO 2506/2508 BKN025
     FM251400 12005KT P6SM SCT040
     FM260200 14005KT P6SM SCT250=

USA.gov is the U.S. government's official web portal to all federal, state and local government web resources and services.